Gran Canaria, Spain
Current Conditions -  °F | °C
As of 10:00 PM on Wednesday 28 Jan 2015 (Local Time) from GCLP Reporting Station
Scattered Clouds Scattered Clouds  
Wind Chill: 63°   Ceiling: Unl
Heat Index: 63°   Visibility: 6mi
Dew Point: 46°   Wind: 13mph
Humidity: 55%   Direction: 360°N
Pressure: 30.33"   Gusts: NA
Location:  28.14°N, 15.43°W
Report Text: GCLP 282200Z 36011KT 9999 SCT040 17/08 Q1027 NOSIG
Loading
Personal Weather Stations






























Interactive Weather Map New forecast layout! Learn more

10-Day Weather Forecast

Advertisements
Track Severe Weather on mobile